Rejestracja

Wszystkie dane podawane są w czasie UTC za wyjątkiem miejsc gdzie jest jednoznacznie podane, że jest inaczej. Dane podawane w serwisie mają charakter informacyjny!!!
Informacje w sprawie dostępu do serwisu pod numerem tel. +48 261-828-138
Informacja dla żołnierzy i pracowników wojska: Prosimy o niezwłoczną zmianę adresu e-mail w profilu użytkownika na pocztę w domenie @ron.mil.pl

Aktualna Pogoda
 
Pogoda w Polsce
23°C Szczecin 20°C Suwałki 26°C Warszawa 25°C Poznan
20°C Opole 23°C Kraków 20°C Rzeszów
Więcej miast w Polsce

Pogoda w Europie
24°C Berlin 19°C Paryz 18°C Bruksela 16°C Oslo
23°C Praga 25°C Zagrzeb
Więcej miast w Europie

Metary wojskowe test
METAR EPBC 201900Z 16002KT CAVOK 26/18 Q1010=
METAR EPCE 201930Z VRB02KT 9999 BKN104 19/17 Q1012 RMK 193 087 7/7=
METAR EPDA 201930Z VRB01KT CAVOK 18/15 Q1011 RMK 184 081 1/1 LTG DSNT SE=
METAR EPDE 201930Z VRB02KT CAVOK 22/18 Q1011 RMK 221 078 7/7=
METAR EPIR 201900Z 35006KT 8000 BKN090 BKN200 20/19 Q1011 RMK 201 094 7/5=
METAR EPKS 201930Z 05002KT CAVOK 22/17 Q1011 RMK 222 072 5/2=
METAR EPLK 201900Z 34005KT 300V010 9999 SCT031 SCT100 BKN200 23/15 Q1011 RMK 231 062 5/3=
METAR EPLY 201900Z VRB04KT CAVOK 22/16 Q1011 RMK 220 067 6/2=
METAR EPMB 201900Z 30005KT 9999 BKN200 19/18 Q1010 RMK 191 094 5/5=
METAR EPMI 201900Z VRB02KT CAVOK 21/15 Q1011 RMK 214 068 3/3=
METAR EPMM 201930Z 14004KT CAVOK 23/17 Q1011 RMK 226 071 7/7=
METAR EPOK 201930Z 23002KT 9999 BKN099 20/16 Q1011 RMK 199 080 6/6=
METAR EPPR 201900Z 00000KT 9999 BKN200 21/17 Q1011 RMK 206 081 6/6=
METAR EPPW 201930Z 28004KT CAVOK 19/17 Q1011 RMK 192 089 5/3=
METAR EPSN 201930Z 01006KT 330V030 9999 SCT040 19/16 Q1012 RMK 193 079 3/3=
METAR EPTM 201900Z AUTO 14002KT ///132 ///141 24/17 Q1011 RMK 241 063 ///=


 

Prawa autorskie©2007 SSH SZ RP. Wszelkie prawa zastrzeżone.